Time;durP1;ratioP1;P1;durP2;ratioP2;P2;SDS_P1;SDS_P2;PMS_P1;PMS_P2;Temp;Humidity;BMP_temperature;BMP_pressure;BME280_temperature;BME280_humidity;BME280_pressure;Samples;Min_cycle;Max_cycle;Signal;HPM_P1;HPM_P2
2023/04/07 00:01:05;;;;;;;26.67;13.65;;;;;;;;;;4969009;28;99506;-77
2023/04/07 00:03:32;;;;;;;31.92;13.23;;;;;;;;;;4971550;28;100010;-76
2023/04/07 00:05:59;;;;;;;18.85;13.45;;;;;;;;;;4969632;28;98732;-76
2023/04/07 00:08:26;;;;;;;22.55;11.85;;;;;;;;;;4951551;28;99442;-76
2023/04/07 00:10:52;;;;;;;24.88;14.20;;;;;;;;;;4950803;28;99959;-77
2023/04/07 00:13:18;;;;;;;31.08;15.13;;;;;;;;;;4959915;28;99899;-75
2023/04/07 00:15:45;;;;;;;22.35;14.88;;;;;;;;;;4959579;28;99531;-76
2023/04/07 00:18:11;;;;;;;27.15;15.10;;;;;;;;;;4952764;28;99313;-76
2023/04/07 00:20:37;;;;;;;25.02;15.30;;;;;;;;;;4951293;28;99432;-76
2023/04/07 00:23:04;;;;;;;29.42;16.08;;;;;;;;;;4965319;28;99093;-76
2023/04/07 00:25:30;;;;;;;26.92;16.58;;;;;;;;;;4953830;28;98251;-76
2023/04/07 00:27:56;;;;;;;24.73;15.52;;;;;;;;;;4970053;28;98606;-76
2023/04/07 00:30:23;;;;;;;30.02;16.60;;;;;;;;;;4969595;28;100073;-76
2023/04/07 00:32:50;;;;;;;25.52;13.48;;;;;;;;;;4970030;28;98294;-76
2023/04/07 00:35:17;;;;;;;31.90;16.77;;;;;;;;;;4978681;28;100373;-76
2023/04/07 00:37:43;;;;;;;28.67;15.40;;;;;;;;;;4969327;28;99183;-76
2023/04/07 00:40:10;;;;;;;34.35;16.63;;;;;;;;;;4961222;28;99338;-76
2023/04/07 00:42:36;;;;;;;28.92;14.75;;;;;;;;;;4967537;28;101700;-76
2023/04/07 00:45:03;;;;;;;32.20;17.35;;;;;;;;;;4969554;28;99697;-76
2023/04/07 00:47:29;;;;;;;32.80;16.27;;;;;;;;;;4953121;28;99399;-76
2023/04/07 00:49:56;;;;;;;27.73;17.05;;;;;;;;;;4970295;28;99070;-76
2023/04/07 00:52:27;;;;;;;29.95;17.20;;;;;;;;;;4969928;28;98713;-76
2023/04/07 00:54:54;;;;;;;30.02;17.02;;;;;;;;;;4974209;28;100266;-76
2023/04/07 00:57:21;;;;;;;26.80;14.85;;;;;;;;;;4966236;28;99369;-77
2023/04/07 00:59:49;;;;;;;35.50;17.23;;;;;;;;;;4956204;28;98069;-76
2023/04/07 01:02:17;;;;;;;36.35;17.35;;;;;;;;;;4967448;28;100201;-76
2023/04/07 01:04:47;;;;;;;33.00;17.13;;;;;;;;;;4968736;28;98251;-76
2023/04/07 01:07:26;;;;;;;28.52;15.57;;;;;;;;;;4958150;28;98749;-76
2023/04/07 01:10:03;;;;;;;27.45;16.42;;;;;;;;;;4965748;28;101156;-77
2023/04/07 01:12:42;;;;;;;30.02;16.15;;;;;;;;;;4952204;28;98276;-76
2023/04/07 01:15:11;;;;;;;32.65;15.88;;;;;;;;;;4995622;28;100531;-77
2023/04/07 01:17:54;;;;;;;42.15;17.58;;;;;;;;;;4971953;28;100972;-76
2023/04/07 01:20:22;;;;;;;30.25;15.25;;;;;;;;;;4958480;28;98427;-76
2023/04/07 01:22:53;;;;;;;;;;;;;;;;;;4986547;28;99470;-77
2023/04/07 01:25:29;;;;;;;28.48;15.07;;;;;;;;;;4983525;28;121460;-77
2023/04/07 01:28:07;;;;;;;42.67;16.23;;;;;;;;;;4993044;28;100582;-77
2023/04/07 01:30:35;;;;;;;42.47;16.70;;;;;;;;;;4950497;28;99464;-76
2023/04/07 01:33:03;;;;;;;33.40;17.30;;;;;;;;;;4968760;28;99140;-76
2023/04/07 01:35:31;;;;;;;37.25;17.30;;;;;;;;;;4969568;28;98197;-76
2023/04/07 01:37:59;;;;;;;42.15;17.73;;;;;;;;;;4967308;28;101602;-77
2023/04/07 01:40:26;;;;;;;38.83;19.05;;;;;;;;;;4968011;28;98305;-77
2023/04/07 01:42:53;;;;;;;35.33;17.25;;;;;;;;;;4968097;28;98940;-76
2023/04/07 01:45:20;;;;;;;35.50;18.98;;;;;;;;;;4963997;28;98779;-76
2023/04/07 01:47:48;;;;;;;37.55;20.13;;;;;;;;;;4957137;28;98223;-76
2023/04/07 01:50:15;;;;;;;37.80;20.77;;;;;;;;;;4967285;28;98917;-76
2023/04/07 01:52:41;;;;;;;39.10;19.27;;;;;;;;;;4967777;28;98054;-77
2023/04/07 01:55:09;;;;;;;42.67;19.40;;;;;;;;;;4958143;28;98488;-76
2023/04/07 01:57:41;;;;;;;41.78;19.13;;;;;;;;;;4966838;28;101635;-77
2023/04/07 02:00:13;;;;;;;33.47;19.17;;;;;;;;;;4968332;28;98834;-76
2023/04/07 02:02:50;;;;;;;35.05;18.85;;;;;;;;;;4968130;28;98645;-76
2023/04/07 02:05:19;;;;;;;34.50;19.58;;;;;;;;;;4967543;28;100738;-76
2023/04/07 02:07:48;;;;;;;37.55;18.08;;;;;;;;;;4972406;28;99667;-76
2023/04/07 02:10:16;;;;;;;43.55;18.30;;;;;;;;;;4951381;28;99125;-77
2023/04/07 02:12:45;;;;;;;36.28;20.20;;;;;;;;;;4966520;28;98294;-77
2023/04/07 02:15:15;;;;;;;41.17;19.52;;;;;;;;;;4960028;28;100781;-77
2023/04/07 02:17:43;;;;;;;36.58;19.85;;;;;;;;;;4948632;28;99021;-76
2023/04/07 02:20:10;;;;;;;34.15;18.73;;;;;;;;;;4958176;28;98270;-77
2023/04/07 02:22:37;;;;;;;39.83;17.77;;;;;;;;;;4964401;28;100418;-76
2023/04/07 02:25:20;;;;;;;46.00;18.95;;;;;;;;;;4956471;28;99825;-77
2023/04/07 02:27:46;;;;;;;35.33;18.00;;;;;;;;;;4954203;28;98841;-77
2023/04/07 02:30:13;;;;;;;34.17;17.67;;;;;;;;;;4952449;28;98311;-76
2023/04/07 02:32:40;;;;;;;32.88;16.90;;;;;;;;;;4957219;28;100432;-76
2023/04/07 02:35:06;;;;;;;33.20;17.60;;;;;;;;;;4981963;28;98488;-76
2023/04/07 02:37:33;;;;;;;30.48;18.20;;;;;;;;;;4978232;28;98630;-76
2023/04/07 02:40:00;;;;;;;34.35;18.08;;;;;;;;;;4961745;28;99677;-76
2023/04/07 02:42:26;;;;;;;41.33;17.55;;;;;;;;;;4956283;28;101241;-76
2023/04/07 02:44:53;;;;;;;32.97;16.70;;;;;;;;;;4968413;28;100117;-77
2023/04/07 02:47:20;;;;;;;30.35;16.45;;;;;;;;;;4964427;28;98183;-77
2023/04/07 02:49:48;;;;;;;27.08;15.50;;;;;;;;;;4952436;28;99314;-76
2023/04/07 02:52:14;;;;;;;34.25;15.88;;;;;;;;;;4958630;28;98576;-76
2023/04/07 02:54:41;;;;;;;39.67;16.33;;;;;;;;;;4962587;28;98573;-77
2023/04/07 02:57:09;;;;;;;33.75;14.15;;;;;;;;;;4979770;28;99123;-76
2023/04/07 02:59:35;;;;;;;33.28;14.57;;;;;;;;;;4958649;28;98732;-76
2023/04/07 03:02:01;;;;;;;28.08;14.35;;;;;;;;;;4981431;28;100756;-76
2023/04/07 03:04:29;;;;;;;32.42;15.25;;;;;;;;;;4967638;28;99928;-76
2023/04/07 03:06:57;;;;;;;32.00;13.88;;;;;;;;;;4967452;28;98303;-76
2023/04/07 03:09:26;;;;;;;28.20;13.35;;;;;;;;;;4962247;28;101181;-76
2023/04/07 03:11:57;;;;;;;29.40;13.90;;;;;;;;;;4979578;28;101342;-76
2023/04/07 03:14:28;;;;;;;27.63;14.40;;;;;;;;;;4953757;28;98685;-76
2023/04/07 03:16:55;;;;;;;33.38;14.27;;;;;;;;;;4956469;28;98839;-76
2023/04/07 03:19:24;;;;;;;32.15;14.60;;;;;;;;;;4961008;28;98317;-76
2023/04/07 03:21:51;;;;;;;34.85;14.85;;;;;;;;;;4965566;28;100840;-76
2023/04/07 03:24:17;;;;;;;34.35;13.50;;;;;;;;;;4953942;28;99114;-76
2023/04/07 03:26:45;;;;;;;34.70;13.90;;;;;;;;;;4959194;28;99837;-76
2023/04/07 03:29:21;;;;;;;31.23;14.52;;;;;;;;;;4955665;28;100667;-76
2023/04/07 03:31:47;;;;;;;47.22;12.02;;;;;;;;;;4947003;28;101641;-76
2023/04/07 03:34:16;;;;;;;32.70;12.38;;;;;;;;;;4970235;28;99064;-76
2023/04/07 03:36:43;;;;;;;30.55;11.10;;;;;;;;;;4966434;28;98783;-76
2023/04/07 03:39:09;;;;;;;22.33;11.13;;;;;;;;;;4968555;28;98170;-76
2023/04/07 03:41:36;;;;;;;30.40;11.65;;;;;;;;;;4979987;28;98653;-76
2023/04/07 03:44:03;;;;;;;37.75;12.10;;;;;;;;;;4961522;28;99230;-76
2023/04/07 03:46:32;;;;;;;31.65;10.82;;;;;;;;;;5000425;28;99030;-76
2023/04/07 03:48:58;;;;;;;32.08;11.70;;;;;;;;;;4964045;28;100697;-76
2023/04/07 03:51:26;;;;;;;29.42;11.63;;;;;;;;;;4963258;28;101226;-76
2023/04/07 03:53:54;;;;;;;33.47;12.32;;;;;;;;;;4965660;28;98285;-76
2023/04/07 03:56:28;;;;;;;33.83;13.20;;;;;;;;;;4969289;28;99686;-76
2023/04/07 03:58:56;;;;;;;30.75;12.52;;;;;;;;;;4967267;28;98256;-76
2023/04/07 04:01:27;;;;;;;32.47;12.45;;;;;;;;;;4967231;28;99588;-76
2023/04/07 04:03:55;;;;;;;29.35;11.55;;;;;;;;;;4965580;28;101328;-76
2023/04/07 04:06:26;;;;;;;38.05;12.20;;;;;;;;;;4966503;28;98233;-76
2023/04/07 04:08:58;;;;;;;23.13;11.50;;;;;;;;;;4966669;28;99571;-77
2023/04/07 04:11:26;;;;;;;30.48;11.85;;;;;;;;;;4965780;28;99957;-76
2023/04/07 04:13:59;;;;;;;33.70;12.68;;;;;;;;;;4966424;28;98075;-76
2023/04/07 04:16:26;;;;;;;32.97;12.07;;;;;;;;;;4967016;28;100522;-78
2023/04/07 04:18:55;;;;;;;24.13;13.13;;;;;;;;;;4968783;28;102210;-77
2023/04/07 04:21:25;;;;;;;32.67;13.13;;;;;;;;;;4966645;28;98523;-77
2023/04/07 04:23:52;;;;;;;34.95;12.68;;;;;;;;;;4948418;28;101293;-76
2023/04/07 04:26:24;;;;;;;36.55;12.63;;;;;;;;;;4971031;28;98266;-76
2023/04/07 04:28:54;;;;;;;48.47;12.68;;;;;;;;;;4990941;28;100530;-76
2023/04/07 04:31:21;;;;;;;32.78;12.35;;;;;;;;;;4955189;28;101893;-76
2023/04/07 04:33:48;;;;;;;27.85;11.48;;;;;;;;;;4985080;28;100180;-76
2023/04/07 04:36:15;;;;;;;37.30;13.05;;;;;;;;;;4959989;28;100600;-76
2023/04/07 04:38:41;;;;;;;28.42;12.13;;;;;;;;;;4965439;28;101153;-76
2023/04/07 04:41:14;;;;;;;23.25;11.18;;;;;;;;;;4969790;28;98214;-76
2023/04/07 04:43:41;;;;;;;28.70;11.60;;;;;;;;;;4966411;28;99901;-76
2023/04/07 04:46:11;;;;;;;27.02;10.93;;;;;;;;;;4963904;28;98489;-76
2023/04/07 04:48:40;;;;;;;21.10;10.35;;;;;;;;;;4954147;28;100695;-76
2023/04/07 04:51:07;;;;;;;25.05;11.20;;;;;;;;;;4950331;28;98880;-76
2023/04/07 04:53:35;;;;;;;22.67;10.05;;;;;;;;;;4948931;28;98325;-77
2023/04/07 04:56:05;;;;;;;17.60;11.18;;;;;;;;;;4951878;28;101227;-76
2023/04/07 04:58:39;;;;;;;23.58;11.77;;;;;;;;;;4954024;28;101598;-76
2023/04/07 05:01:06;;;;;;;22.45;11.48;;;;;;;;;;4962547;28;98364;-76
2023/04/07 05:03:38;;;;;;;30.80;10.25;;;;;;;;;;4957151;28;101259;-76
2023/04/07 05:06:12;;;;;;;22.58;10.55;;;;;;;;;;4961272;28;99746;-76
2023/04/07 05:08:43;;;;;;;21.60;10.52;;;;;;;;;;4970687;28;98464;-76
2023/04/07 05:11:10;;;;;;;21.40;9.65;;;;;;;;;;4968753;28;99239;-76
2023/04/07 05:13:37;;;;;;;15.98;8.80;;;;;;;;;;4963255;28;99753;-76
2023/04/07 05:16:04;;;;;;;18.25;10.35;;;;;;;;;;4952339;28;100318;-76
2023/04/07 05:18:31;;;;;;;30.92;10.05;;;;;;;;;;4963707;28;99933;-76
2023/04/07 05:21:00;;;;;;;24.60;9.70;;;;;;;;;;4980820;28;98498;-77
2023/04/07 05:23:27;;;;;;;20.83;8.93;;;;;;;;;;4969801;28;100683;-76
2023/04/07 05:25:54;;;;;;;13.32;7.40;;;;;;;;;;4967965;28;98364;-76
2023/04/07 05:28:20;;;;;;;17.98;8.50;;;;;;;;;;4968149;28;98768;-76
2023/04/07 05:30:48;;;;;;;10.02;7.70;;;;;;;;;;4968157;28;99420;-77
2023/04/07 05:33:15;;;;;;;15.65;7.43;;;;;;;;;;4958164;28;98206;-76
2023/04/07 05:35:47;;;;;;;15.20;7.63;;;;;;;;;;4966378;28;100767;-74
2023/04/07 05:38:15;;;;;;;13.68;7.10;;;;;;;;;;5002337;28;101626;-74
2023/04/07 05:40:43;;;;;;;17.95;7.25;;;;;;;;;;4963461;28;98687;-76
2023/04/07 05:43:16;;;;;;;12.80;7.38;;;;;;;;;;4958258;28;99038;-75
2023/04/07 05:45:43;;;;;;;12.80;6.38;;;;;;;;;;4957567;28;100291;-77
2023/04/07 05:48:10;;;;;;;11.55;7.05;;;;;;;;;;4959668;28;99226;-77
2023/04/07 05:50:42;;;;;;;18.20;7.17;;;;;;;;;;4978899;28;102036;-77
2023/04/07 05:53:12;;;;;;;16.55;6.32;;;;;;;;;;4984219;28;98245;-77
2023/04/07 05:55:41;;;;;;;16.70;6.65;;;;;;;;;;4966982;28;98629;-77
2023/04/07 05:58:10;;;;;;;17.30;6.55;;;;;;;;;;4953200;28;101466;-76
2023/04/07 06:00:39;;;;;;;16.40;6.53;;;;;;;;;;4949493;28;98373;-74
2023/04/07 06:03:11;;;;;;;17.30;7.63;;;;;;;;;;4964118;28;101156;-74
2023/04/07 06:05:49;;;;;;;14.98;8.30;;;;;;;;;;4951802;28;101509;-77
2023/04/07 06:08:18;;;;;;;14.63;7.05;;;;;;;;;;4970542;28;98581;-76
2023/04/07 06:10:45;;;;;;;16.17;7.63;;;;;;;;;;4967232;28;99050;-77
2023/04/07 06:13:12;;;;;;;16.85;6.95;;;;;;;;;;4962645;28;98506;-76
2023/04/07 06:15:38;;;;;;;17.67;7.20;;;;;;;;;;4954774;28;98415;-75
2023/04/07 06:18:05;;;;;;;20.73;8.25;;;;;;;;;;4968096;28;99970;-75
2023/04/07 06:20:31;;;;;;;21.85;8.35;;;;;;;;;;4961203;28;99539;-76
2023/04/07 06:22:58;;;;;;;15.63;7.60;;;;;;;;;;4951103;28;98773;-76
2023/04/07 06:25:25;;;;;;;24.05;7.82;;;;;;;;;;4960235;28;99994;-76
2023/04/07 06:27:52;;;;;;;19.85;8.30;;;;;;;;;;4947930;28;98263;-76
2023/04/07 06:30:21;;;;;;;21.17;8.02;;;;;;;;;;4950749;28;100376;-76
2023/04/07 06:32:47;;;;;;;13.82;7.57;;;;;;;;;;4955582;28;98277;-76
2023/04/07 06:35:14;;;;;;;22.92;8.15;;;;;;;;;;4965302;28;98822;-76
2023/04/07 06:37:40;;;;;;;13.43;7.72;;;;;;;;;;4962243;28;100929;-76
2023/04/07 06:40:07;;;;;;;23.00;7.82;;;;;;;;;;4966071;28;98400;-76
2023/04/07 06:42:33;;;;;;;24.48;7.22;;;;;;;;;;4968889;28;99603;-75
2023/04/07 06:45:14;;;;;;;18.40;7.72;;;;;;;;;;4966733;28;101685;-76
2023/04/07 06:47:41;;;;;;;25.48;8.05;;;;;;;;;;4966275;28;98242;-76
2023/04/07 06:50:07;;;;;;;18.90;7.13;;;;;;;;;;4950053;28;98737;-76
2023/04/07 06:52:34;;;;;;;22.25;7.88;;;;;;;;;;4951350;28;98288;-76
2023/04/07 06:55:00;;;;;;;20.70;7.88;;;;;;;;;;4948209;28;99600;-76
2023/04/07 06:57:27;;;;;;;25.15;7.32;;;;;;;;;;4964433;28;99167;-77
2023/04/07 06:59:53;;;;;;;21.50;7.20;;;;;;;;;;4966505;28;98259;-76
2023/04/07 07:02:19;;;;;;;24.08;7.47;;;;;;;;;;4952646;28;99528;-76
2023/04/07 07:04:46;;;;;;;15.10;7.10;;;;;;;;;;4950948;28;99985;-77
2023/04/07 07:07:12;;;;;;;14.07;7.20;;;;;;;;;;4962852;28;100808;-75
2023/04/07 07:09:39;;;;;;;23.48;8.07;;;;;;;;;;4954475;28;100241;-75
2023/04/07 07:12:05;;;;;;;23.58;9.20;;;;;;;;;;4959615;28;99125;-75
2023/04/07 07:14:32;;;;;;;16.67;9.15;;;;;;;;;;4948833;28;99726;-75
2023/04/07 07:16:58;;;;;;;22.05;9.02;;;;;;;;;;4948173;28;99996;-75
2023/04/07 07:19:24;;;;;;;19.60;7.63;;;;;;;;;;4948056;28;98239;-74
2023/04/07 07:21:51;;;;;;;14.48;8.35;;;;;;;;;;4947849;28;98642;-74
2023/04/07 07:24:17;;;;;;;19.90;8.55;;;;;;;;;;4949287;28;100395;-75
2023/04/07 07:26:44;;;;;;;16.45;8.15;;;;;;;;;;4956700;28;98401;-76
2023/04/07 07:29:11;;;;;;;18.80;7.05;;;;;;;;;;4948741;28;98549;-75
2023/04/07 07:31:37;;;;;;;24.70;7.75;;;;;;;;;;4949696;28;100021;-75
2023/04/07 07:34:04;;;;;;;17.50;7.38;;;;;;;;;;4956655;28;98919;-76
2023/04/07 07:36:31;;;;;;;19.42;8.05;;;;;;;;;;4967317;28;100377;-76
2023/04/07 07:38:57;;;;;;;20.67;7.93;;;;;;;;;;4968041;28;98882;-75
2023/04/07 07:41:25;;;;;;;17.63;7.55;;;;;;;;;;4969878;28;98899;-76
2023/04/07 07:43:51;;;;;;;19.13;7.90;;;;;;;;;;4971612;28;98992;-76
2023/04/07 07:46:18;;;;;;;15.65;7.72;;;;;;;;;;4968387;28;98476;-76
2023/04/07 07:48:45;;;;;;;23.45;8.20;;;;;;;;;;4967337;28;98646;-76
2023/04/07 07:51:11;;;;;;;20.70;9.13;;;;;;;;;;4969075;28;100830;-76
2023/04/07 07:53:38;;;;;;;20.95;7.35;;;;;;;;;;4951872;28;98422;-75
2023/04/07 07:56:05;;;;;;;22.13;7.65;;;;;;;;;;4962989;28;99384;-75
2023/04/07 07:58:31;;;;;;;18.58;6.90;;;;;;;;;;4963238;28;98282;-76
2023/04/07 08:00:57;;;;;;;18.50;8.27;;;;;;;;;;4948011;28;99426;-76
2023/04/07 08:03:24;;;;;;;17.27;6.68;;;;;;;;;;4954794;28;99756;-75
2023/04/07 08:05:50;;;;;;;19.08;6.47;;;;;;;;;;4948481;28;99915;-75
2023/04/07 08:08:17;;;;;;;14.80;5.53;;;;;;;;;;4947229;28;98751;-75
2023/04/07 08:10:43;;;;;;;18.58;5.35;;;;;;;;;;4950769;28;99875;-76
2023/04/07 08:13:10;;;;;;;13.55;5.30;;;;;;;;;;4951277;28;98246;-75
2023/04/07 08:15:36;;;;;;;13.07;5.30;;;;;;;;;;4947924;28;99710;-76
2023/04/07 08:18:05;;;;;;;13.82;5.90;;;;;;;;;;4953212;28;100077;-76
2023/04/07 08:20:32;;;;;;;16.70;4.93;;;;;;;;;;4950361;28;99786;-76
2023/04/07 08:22:58;;;;;;;20.42;5.72;;;;;;;;;;4954040;28;98926;-76
2023/04/07 08:25:24;;;;;;;9.23;4.93;;;;;;;;;;4966949;28;98334;-76
2023/04/07 08:27:51;;;;;;;8.38;4.65;;;;;;;;;;4951513;28;100742;-76
2023/04/07 08:30:20;;;;;;;11.02;4.40;;;;;;;;;;4974263;28;99243;-76
2023/04/07 08:32:47;;;;;;;11.88;4.40;;;;;;;;;;4954969;28;98297;-76
2023/04/07 08:35:14;;;;;;;16.65;4.40;;;;;;;;;;4961157;28;99852;-75
2023/04/07 08:37:48;;;;;;;11.80;4.15;;;;;;;;;;4959360;28;99510;-76
2023/04/07 08:40:15;;;;;;;14.30;3.78;;;;;;;;;;4968011;28;98576;-76
2023/04/07 08:42:43;;;;;;;13.35;4.30;;;;;;;;;;4957558;28;100132;-76
2023/04/07 08:45:10;;;;;;;17.42;4.13;;;;;;;;;;4953285;28;100796;-75
2023/04/07 08:47:38;;;;;;;13.15;3.95;;;;;;;;;;4961885;28;99545;-76
2023/04/07 08:50:06;;;;;;;12.32;3.88;;;;;;;;;;4961728;28;100288;-75
2023/04/07 08:52:35;;;;;;;8.93;2.88;;;;;;;;;;4954928;28;99129;-76
2023/04/07 08:55:02;;;;;;;12.15;3.95;;;;;;;;;;4955570;28;99662;-76
2023/04/07 08:57:30;;;;;;;13.25;3.53;;;;;;;;;;4950020;28;99718;-76
2023/04/07 08:59:59;;;;;;;9.48;3.15;;;;;;;;;;4953419;28;98904;-76
2023/04/07 09:02:26;;;;;;;15.13;3.92;;;;;;;;;;4961228;28;99233;-76
2023/04/07 09:04:52;;;;;;;11.55;2.97;;;;;;;;;;4961969;28;98218;-76
2023/04/07 09:07:19;;;;;;;13.50;3.55;;;;;;;;;;4952658;28;100188;-76
2023/04/07 09:09:46;;;;;;;17.90;3.65;;;;;;;;;;4973653;28;100185;-77
2023/04/07 09:12:13;;;;;;;9.77;2.75;;;;;;;;;;4969532;28;98296;-76
2023/04/07 09:14:39;;;;;;;10.18;3.70;;;;;;;;;;4953043;28;99055;-76
2023/04/07 09:17:08;;;;;;;12.43;3.47;;;;;;;;;;4962122;28;100223;-76
2023/04/07 09:19:34;;;;;;;13.88;3.90;;;;;;;;;;4970420;28;98349;-76
2023/04/07 09:22:01;;;;;;;9.30;3.20;;;;;;;;;;4977276;28;99518;-76
2023/04/07 09:24:30;;;;;;;12.20;3.95;;;;;;;;;;4968973;28;98784;-76
2023/04/07 09:27:10;;;;;;;8.73;3.35;;;;;;;;;;4983529;28;99506;-75
2023/04/07 09:29:41;;;;;;;13.68;4.10;;;;;;;;;;4975048;28;99901;-76
2023/04/07 09:32:08;;;;;;;11.10;3.60;;;;;;;;;;4971049;28;98249;-76
2023/04/07 09:34:36;;;;;;;7.15;3.17;;;;;;;;;;4960965;28;98635;-76
2023/04/07 09:37:08;;;;;;;6.95;3.30;;;;;;;;;;4966053;28;99993;-75
2023/04/07 09:39:48;;;;;;;8.73;3.45;;;;;;;;;;4974895;28;98344;-76
2023/04/07 09:42:14;;;;;;;14.57;3.65;;;;;;;;;;4958522;28;99459;-76
2023/04/07 09:44:41;;;;;;;11.13;3.10;;;;;;;;;;4953203;28;100501;-77
2023/04/07 09:47:08;;;;;;;5.20;3.30;;;;;;;;;;4954143;28;100169;-76
2023/04/07 09:49:47;;;;;;;12.15;2.90;;;;;;;;;;4962312;28;99860;-75
2023/04/07 09:52:13;;;;;;;12.48;3.88;;;;;;;;;;4958014;28;99122;-76
2023/04/07 09:54:40;;;;;;;9.48;3.33;;;;;;;;;;4972340;28;99736;-76
2023/04/07 09:57:08;;;;;;;3.38;2.60;;;;;;;;;;4950700;28;100048;-75
2023/04/07 09:59:36;;;;;;;8.75;3.38;;;;;;;;;;4965921;28;98951;-76
2023/04/07 10:02:02;;;;;;;9.45;2.90;;;;;;;;;;4978667;28;99607;-75
2023/04/07 10:04:29;;;;;;;6.22;2.65;;;;;;;;;;4975069;28;99461;-75
2023/04/07 10:06:56;;;;;;;7.90;3.28;;;;;;;;;;4967398;28;98716;-75
2023/04/07 10:09:24;;;;;;;9.68;3.28;;;;;;;;;;4962562;28;99941;-75
2023/04/07 10:11:51;;;;;;;5.75;2.20;;;;;;;;;;4959733;28;98294;-75
2023/04/07 10:14:18;;;;;;;6.13;3.75;;;;;;;;;;4968677;28;98597;-75
2023/04/07 10:16:45;;;;;;;12.45;2.78;;;;;;;;;;4966254;28;99453;-75
2023/04/07 10:19:12;;;;;;;6.80;2.40;;;;;;;;;;4952478;28;98496;-75
2023/04/07 10:21:44;;;;;;;5.80;2.75;;;;;;;;;;4953120;28;99189;-77
2023/04/07 10:24:22;;;;;;;6.15;2.58;;;;;;;;;;4958323;28;100030;-76
2023/04/07 10:27:03;;;;;;;5.80;2.40;;;;;;;;;;4963819;28;98142;-76
2023/04/07 10:29:33;;;;;;;5.80;2.60;;;;;;;;;;4953520;28;98794;-76
2023/04/07 10:32:00;;;;;;;6.80;2.65;;;;;;;;;;4952328;28;98868;-75
2023/04/07 10:34:46;;;;;;;8.45;2.60;;;;;;;;;;4949247;28;99655;-74
2023/04/07 10:37:13;;;;;;;6.03;2.40;;;;;;;;;;4965234;28;100004;-77
2023/04/07 10:39:39;;;;;;;7.10;2.13;;;;;;;;;;4955547;28;98315;-76
2023/04/07 10:42:06;;;;;;;8.00;2.63;;;;;;;;;;4968946;28;98539;-76
2023/04/07 10:44:41;;;;;;;4.35;2.60;;;;;;;;;;4967941;28;99150;-76
2023/04/07 10:47:08;;;;;;;9.55;2.33;;;;;;;;;;4968994;28;98303;-75
2023/04/07 10:49:34;;;;;;;4.25;1.88;;;;;;;;;;4953356;28;98729;-75
2023/04/07 10:52:20;;;;;;;14.05;3.10;;;;;;;;;;4951456;28;100050;-75
2023/04/07 10:54:47;;;;;;;4.05;2.20;;;;;;;;;;4960983;28;98668;-75
2023/04/07 10:57:14;;;;;;;12.98;2.50;;;;;;;;;;4949169;28;99899;-75
2023/04/07 11:00:01;;;;;;;5.43;2.28;;;;;;;;;;4948446;28;98349;-75
2023/04/07 11:02:27;;;;;;;8.07;2.33;;;;;;;;;;4964313;28;99639;-75
2023/04/07 11:04:55;;;;;;;8.98;2.53;;;;;;;;;;4966633;28;100118;-75
2023/04/07 11:07:41;;;;;;;10.63;2.40;;;;;;;;;;4968779;28;98223;-75
2023/04/07 11:10:08;;;;;;;6.63;2.63;;;;;;;;;;4962845;28;99771;-74
2023/04/07 11:12:35;;;;;;;8.10;2.22;;;;;;;;;;4962392;28;100559;-74
2023/04/07 11:15:15;;;;;;;16.02;2.67;;;;;;;;;;4967227;28;98767;-75
2023/04/07 11:17:41;;;;;;;4.75;2.20;;;;;;;;;;4949610;28;100252;-75
2023/04/07 11:20:08;;;;;;;7.80;2.25;;;;;;;;;;4948512;28;98308;-75
2023/04/07 11:22:36;;;;;;;10.32;2.67;;;;;;;;;;4954525;28;98505;-75
2023/04/07 11:25:02;;;;;;;13.10;3.03;;;;;;;;;;4963845;28;99226;-75
2023/04/07 11:27:29;;;;;;;9.32;2.70;;;;;;;;;;4955706;28;99434;-77
2023/04/07 11:29:55;;;;;;;6.38;2.30;;;;;;;;;;4959265;28;98565;-76
2023/04/07 11:32:28;;;;;;;9.82;2.80;;;;;;;;;;4957911;28;98970;-77
2023/04/07 11:34:56;;;;;;;7.90;2.50;;;;;;;;;;4972767;28;98354;-77
2023/04/07 11:37:24;;;;;;;4.68;2.00;;;;;;;;;;4968350;28;100051;-77
2023/04/07 11:39:54;;;;;;;5.70;2.20;;;;;;;;;;4968098;28;98234;-77
2023/04/07 11:42:36;;;;;;;4.63;2.22;;;;;;;;;;4967200;28;99920;-76
2023/04/07 11:45:03;;;;;;;11.98;2.83;;;;;;;;;;4960575;28;98968;-76
2023/04/07 11:47:36;;;;;;;8.77;2.65;;;;;;;;;;4949439;28;99979;-77
2023/04/07 11:50:03;;;;;;;10.55;2.88;;;;;;;;;;4964403;28;98629;-77
2023/04/07 11:52:41;;;;;;;10.00;3.10;;;;;;;;;;4962071;28;100136;-76
2023/04/07 11:55:18;;;;;;;5.80;2.53;;;;;;;;;;4966018;28;98525;-77
2023/04/07 11:57:50;;;;;;;6.28;2.60;;;;;;;;;;4973978;28;99866;-75
2023/04/07 12:00:17;;;;;;;7.88;2.80;;;;;;;;;;4970825;28;98339;-76
2023/04/07 12:02:43;;;;;;;8.90;2.35;;;;;;;;;;4956135;28;99735;-76
2023/04/07 12:05:10;;;;;;;5.22;2.42;;;;;;;;;;4961511;28;100347;-76
2023/04/07 12:07:37;;;;;;;10.48;2.35;;;;;;;;;;4954201;28;98986;-76
2023/04/07 12:10:19;;;;;;;7.30;2.70;;;;;;;;;;4966199;28;98759;-76
2023/04/07 12:12:46;;;;;;;4.45;2.25;;;;;;;;;;4959284;28;100225;-76
2023/04/07 12:15:13;;;;;;;5.85;2.47;;;;;;;;;;4966067;28;99191;-76
2023/04/07 12:17:46;;;;;;;5.75;2.28;;;;;;;;;;4950688;28;99666;-76
2023/04/07 12:20:13;;;;;;;4.93;2.08;;;;;;;;;;4971983;28;99905;-76
2023/04/07 12:22:40;;;;;;;8.07;2.22;;;;;;;;;;4971960;28;98666;-75
2023/04/07 12:25:07;;;;;;;8.80;2.85;;;;;;;;;;4953057;28;100501;-75
2023/04/07 12:27:34;;;;;;;8.57;2.10;;;;;;;;;;4951801;28;98302;-76
2023/04/07 12:30:08;;;;;;;3.38;2.10;;;;;;;;;;4967245;28;99371;-75
2023/04/07 12:32:36;;;;;;;4.68;2.40;;;;;;;;;;4955509;28;99184;-76
2023/04/07 12:35:04;;;;;;;3.38;2.00;;;;;;;;;;4951525;28;98321;-74
2023/04/07 12:37:31;;;;;;;3.78;2.17;;;;;;;;;;4954427;28;99732;-76
2023/04/07 12:39:58;;;;;;;8.35;2.65;;;;;;;;;;4967359;28;100010;-75
2023/04/07 12:42:25;;;;;;;6.15;2.20;;;;;;;;;;4973547;28;100360;-75
2023/04/07 12:44:51;;;;;;;6.25;2.10;;;;;;;;;;4969195;28;99948;-74
2023/04/07 12:47:18;;;;;;;5.78;2.40;;;;;;;;;;4967471;28;98549;-73
2023/04/07 12:49:44;;;;;;;8.35;2.20;;;;;;;;;;4969810;28;98756;-73
2023/04/07 12:52:12;;;;;;;7.43;2.25;;;;;;;;;;4954723;28;100270;-73
2023/04/07 12:54:39;;;;;;;3.88;2.45;;;;;;;;;;4955254;28;99157;-73
2023/04/07 12:57:05;;;;;;;16.13;2.75;;;;;;;;;;4970427;28;99601;-73
2023/04/07 12:59:31;;;;;;;6.20;2.47;;;;;;;;;;4968306;28;99997;-74
2023/04/07 13:01:58;;;;;;;4.43;2.30;;;;;;;;;;4959149;28;98542;-73
2023/04/07 13:04:25;;;;;;;12.60;2.72;;;;;;;;;;4954386;28;98891;-73
2023/04/07 13:06:52;;;;;;;12.60;3.05;;;;;;;;;;4949238;28;98301;-73
2023/04/07 13:09:19;;;;;;;5.28;2.85;;;;;;;;;;4951092;28;98796;-73
2023/04/07 13:11:45;;;;;;;8.45;2.60;;;;;;;;;;4962225;28;99128;-73
2023/04/07 13:14:11;;;;;;;10.05;2.47;;;;;;;;;;4969591;28;98213;-73
2023/04/07 13:16:38;;;;;;;14.27;2.92;;;;;;;;;;4969675;28;101022;-73
2023/04/07 13:19:04;;;;;;;7.85;2.50;;;;;;;;;;4965671;28;100138;-73
2023/04/07 13:21:31;;;;;;;11.90;2.95;;;;;;;;;;4959736;28;98276;-73
2023/04/07 13:24:11;;;;;;;16.30;2.75;;;;;;;;;;4973492;28;98639;-73
2023/04/07 13:26:37;;;;;;;7.43;3.75;;;;;;;;;;4969853;28;98276;-73
2023/04/07 13:29:03;;;;;;;11.55;3.00;;;;;;;;;;4969941;28;99351;-73
2023/04/07 13:31:30;;;;;;;18.00;3.28;;;;;;;;;;4963671;28;98982;-73
2023/04/07 13:33:56;;;;;;;22.42;4.32;;;;;;;;;;4962968;28;98825;-73
2023/04/07 13:36:23;;;;;;;13.93;3.15;;;;;;;;;;4957010;28;98726;-73
2023/04/07 13:38:50;;;;;;;12.73;4.13;;;;;;;;;;4962823;28;99975;-73
2023/04/07 13:41:16;;;;;;;9.23;2.72;;;;;;;;;;4968263;28;98265;-77
2023/04/07 13:43:43;;;;;;;8.27;3.30;;;;;;;;;;4969455;28;99714;-75
2023/04/07 13:46:13;;;;;;;12.00;3.30;;;;;;;;;;4958019;28;100383;-74
2023/04/07 13:48:43;;;;;;;7.13;3.05;;;;;;;;;;4952954;28;98672;-75
2023/04/07 13:51:10;;;;;;;7.20;2.70;;;;;;;;;;4951839;28;99860;-75
2023/04/07 13:53:36;;;;;;;7.80;2.72;;;;;;;;;;4950949;28;98280;-75
2023/04/07 13:56:05;;;;;;;10.85;2.78;;;;;;;;;;4949897;28;99205;-75
2023/04/07 13:58:31;;;;;;;10.48;2.92;;;;;;;;;;4967568;28;100487;-75
2023/04/07 14:00:57;;;;;;;9.43;2.70;;;;;;;;;;4968602;28;98413;-75
2023/04/07 14:03:24;;;;;;;8.15;3.10;;;;;;;;;;4969543;28;99520;-75
2023/04/07 14:05:50;;;;;;;9.55;3.42;;;;;;;;;;4969111;28;99639;-76
2023/04/07 14:08:17;;;;;;;11.38;3.05;;;;;;;;;;4964431;28;98094;-75
2023/04/07 14:10:45;;;;;;;11.00;3.72;;;;;;;;;;4949740;28;99596;-75
2023/04/07 14:13:11;;;;;;;6.70;2.80;;;;;;;;;;4949950;28;98224;-76
2023/04/07 14:15:38;;;;;;;6.43;2.17;;;;;;;;;;4950160;28;98515;-75
2023/04/07 14:18:05;;;;;;;6.72;2.47;;;;;;;;;;4951682;28;100106;-76
2023/04/07 14:20:32;;;;;;;5.85;2.78;;;;;;;;;;4952600;28;98239;-75
2023/04/07 14:22:58;;;;;;;7.22;2.78;;;;;;;;;;4972167;28;99692;-75
2023/04/07 14:25:25;;;;;;;11.50;3.05;;;;;;;;;;4963835;28;100052;-75
2023/04/07 14:27:51;;;;;;;11.15;3.45;;;;;;;;;;4969451;28;98211;-76
2023/04/07 14:30:18;;;;;;;7.80;3.20;;;;;;;;;;4971607;28;99867;-78
2023/04/07 14:32:45;;;;;;;7.50;3.10;;;;;;;;;;4960083;28;98713;-76